Time;durP1;ratioP1;P1;durP2;ratioP2;P2;SDS_P1;SDS_P2;PMS_P1;PMS_P2;Temp;Humidity;BMP_temperature;BMP_pressure;BME280_temperature;BME280_humidity;BME280_pressure;Samples;Min_cycle;Max_cycle;Signal;HPM_P1;HPM_P2
2021/05/10 00:00:39;;;;;;;55.05;6.70;;;;;;;11.79;100.00;99672.38;5073959;28;20163;-66
2021/05/10 00:03:05;;;;;;;56.15;8.77;;;;;;;11.78;100.00;99668.81;5072486;28;20044;-64
2021/05/10 00:05:30;;;;;;;45.47;6.85;;;;;;;11.76;100.00;99665.53;5074232;28;20082;-65
2021/05/10 00:07:56;;;;;;;61.15;9.27;;;;;;;11.75;100.00;99642.00;5073906;28;20037;-67
2021/05/10 00:10:21;;;;;;;64.78;8.05;;;;;;;11.74;100.00;99653.22;5073667;28;20039;-65
2021/05/10 00:12:48;;;;;;;52.42;7.60;;;;;;;11.72;100.00;99650.78;5073741;28;20040;-66
2021/05/10 00:15:15;;;;;;;58.03;8.77;;;;;;;11.71;100.00;99646.41;5073589;28;20475;-65
2021/05/10 00:17:40;;;;;;;48.75;7.78;;;;;;;11.70;100.00;99644.75;5073757;28;20037;-65
2021/05/10 00:20:07;;;;;;;56.95;8.68;;;;;;;11.69;100.00;99648.59;5073523;28;20036;-65
2021/05/10 00:22:32;;;;;;;50.53;7.13;;;;;;;11.67;100.00;99639.84;5073638;28;20032;-65
2021/05/10 00:24:58;;;;;;;68.97;7.43;;;;;;;11.68;100.00;99646.97;5073662;28;20079;-64
2021/05/10 00:27:24;;;;;;;48.42;7.45;;;;;;;11.66;100.00;99654.63;5072281;28;20151;-65
2021/05/10 00:29:49;;;;;;;56.97;8.35;;;;;;;11.65;100.00;99642.06;5073522;28;20036;-66
2021/05/10 00:32:16;;;;;;;49.00;6.40;;;;;;;11.65;100.00;99653.00;5073728;28;20604;-67
2021/05/10 00:34:42;;;;;;;50.53;7.93;;;;;;;11.65;100.00;99650.25;5072005;28;20120;-66
2021/05/10 00:37:07;;;;;;;55.63;6.88;;;;;;;11.65;100.00;99647.53;5073365;28;20479;-67
2021/05/10 00:39:33;;;;;;;46.63;7.15;;;;;;;11.64;100.00;99637.69;5073369;28;20035;-67
2021/05/10 00:41:59;;;;;;;41.60;7.10;;;;;;;11.64;100.00;99634.94;5073191;28;20105;-66
2021/05/10 00:44:25;;;;;;;48.85;6.20;;;;;;;11.64;100.00;99634.94;5073072;28;20085;-65
2021/05/10 00:46:52;;;;;;;61.20;6.93;;;;;;;11.62;100.00;99626.19;5073212;28;20035;-66
2021/05/10 00:49:19;;;;;;;50.75;7.28;;;;;;;11.64;100.00;99629.47;5073026;28;20044;-66
2021/05/10 00:51:45;;;;;;;50.55;6.82;;;;;;;11.64;100.00;99628.66;5073022;28;20402;-65
2021/05/10 00:54:10;;;;;;;54.97;8.07;;;;;;;11.61;100.00;99621.81;5073032;28;20040;-66
2021/05/10 00:56:36;;;;;;;60.72;7.70;;;;;;;11.63;100.00;99627.84;5072615;28;20441;-65
2021/05/10 00:59:02;;;;;;;52.85;8.50;;;;;;;11.62;100.00;99611.69;5073090;28;20033;-66
2021/05/10 01:01:28;;;;;;;57.63;7.50;;;;;;;11.63;100.00;99622.38;5072927;28;20554;-66
2021/05/10 01:03:54;;;;;;;54.15;7.75;;;;;;;11.63;100.00;99616.91;5072648;28;20041;-64
2021/05/10 01:06:20;;;;;;;42.95;6.35;;;;;;;11.63;100.00;99627.84;5072793;28;20040;-66
2021/05/10 01:08:46;;;;;;;40.38;6.88;;;;;;;11.64;100.00;99629.47;5072798;28;20029;-66
2021/05/10 01:11:13;;;;;;;59.05;7.15;;;;;;;11.64;100.00;99624.00;5072517;28;20067;-66
2021/05/10 01:13:39;;;;;;;60.45;7.45;;;;;;;11.66;100.00;99634.66;5072526;28;20032;-65
2021/05/10 01:16:05;;;;;;;48.88;6.75;;;;;;;11.64;100.00;99626.75;5072900;28;20068;-65
2021/05/10 01:18:31;;;;;;;56.25;6.82;;;;;;;11.64;100.00;99634.13;5072449;28;20037;-66
2021/05/10 01:20:59;;;;;;;53.67;7.72;;;;;;;11.64;100.00;99628.66;5072493;28;20094;-64
2021/05/10 01:23:26;;;;;;;50.55;6.45;;;;;;;11.63;100.00;99627.84;5072452;28;20067;-65
2021/05/10 01:25:53;;;;;;;46.72;5.75;;;;;;;11.63;100.00;99627.84;5072600;28;20126;-65
2021/05/10 01:28:20;;;;;;;47.42;6.40;;;;;;;11.63;100.00;99621.56;5072312;28;20036;-66
2021/05/10 01:30:49;;;;;;;45.90;5.43;;;;;;;11.63;100.00;99633.31;5072424;28;20040;-65
2021/05/10 01:33:18;;;;;;;46.85;6.80;;;;;;;11.63;100.00;99633.31;5072320;28;20043;-67
2021/05/10 01:35:47;;;;;;;55.33;7.20;;;;;;;11.61;100.00;99630.00;5072101;28;20551;-66
2021/05/10 01:38:13;;;;;;;51.85;7.28;;;;;;;11.61;100.00;99646.41;5072212;28;20064;-65
2021/05/10 01:40:40;;;;;;;51.95;7.20;;;;;;;11.60;100.00;99655.72;5071918;28;20127;-65
2021/05/10 01:43:06;;;;;;;55.13;6.55;;;;;;;11.61;100.00;99646.41;5072061;28;20028;-65
2021/05/10 01:45:32;;;;;;;48.20;6.38;;;;;;;11.61;100.00;99646.41;5071842;28;20528;-65
2021/05/10 01:47:59;;;;;;;50.03;6.25;;;;;;;11.62;100.00;99647.25;5071841;28;20086;-67
2021/05/10 01:50:26;;;;;;;49.38;6.63;;;;;;;11.59;100.00;99645.06;5072079;28;20039;-65
2021/05/10 01:52:52;;;;;;;43.33;6.25;;;;;;;11.56;100.00;99653.81;5071806;28;20048;-66
2021/05/10 01:55:21;;;;;;;33.92;5.93;;;;;;;11.53;100.00;99663.41;5072011;28;20036;-65
2021/05/10 01:57:48;;;;;;;50.40;6.28;;;;;;;11.54;100.00;99645.91;5071652;28;20501;-65
2021/05/10 02:00:23;;;;;;;53.35;6.65;;;;;;;11.56;100.00;99654.66;5071737;28;20067;-65
2021/05/10 02:02:49;;;;;;;47.83;6.80;;;;;;;11.58;100.00;99660.66;5071569;28;20501;-65
2021/05/10 02:05:20;;;;;;;58.28;7.88;;;;;;;11.57;100.00;99656.28;5071549;28;20028;-66
2021/05/10 02:07:50;;;;;;;55.53;7.43;;;;;;;11.55;100.00;99658.47;5071647;28;20451;-65
2021/05/10 02:10:22;;;;;;;52.65;7.07;;;;;;;11.56;100.00;99660.13;5071527;28;20041;-66
2021/05/10 02:12:57;;;;;;;39.42;5.13;;;;;;;11.55;100.00;99668.59;5071458;28;20028;-66
2021/05/10 02:15:23;;;;;;;;;;;;;;;11.55;100.00;99669.41;5071906;28;20498;-65
2021/05/10 02:17:49;;;;;;;44.67;6.78;;;;;;;11.53;100.00;99671.59;5071296;28;19916;-66
2021/05/10 02:20:15;;;;;;;53.13;6.60;;;;;;;11.55;100.00;99669.41;5071413;28;20104;-67
2021/05/10 02:22:56;;;;;;;52.58;5.57;;;;;;;11.54;100.00;99673.25;5071199;28;20028;-66
2021/05/10 02:25:24;;;;;;;37.85;5.80;;;;;;;11.55;100.00;99657.66;5071160;28;20025;-65
2021/05/10 02:27:50;;;;;;;34.50;6.07;;;;;;;11.55;100.00;99666.69;5071287;28;20040;-67
2021/05/10 02:30:18;;;;;;;37.92;5.80;;;;;;;11.54;100.00;99662.31;5071211;28;20195;-65
2021/05/10 02:32:44;;;;;;;42.67;5.35;;;;;;;11.62;100.00;99663.66;5070995;28;20028;-65
2021/05/10 02:35:10;;;;;;;44.40;6.80;;;;;;;11.60;100.00;99666.66;5070978;28;20032;-65
2021/05/10 02:37:36;;;;;;;48.33;5.97;;;;;;;11.59;100.00;99669.69;5071176;28;20123;-67
2021/05/10 02:40:04;;;;;;;34.63;5.00;;;;;;;11.53;100.00;99660.69;5071102;28;20617;-67
2021/05/10 02:42:30;;;;;;;48.78;7.00;;;;;;;11.53;100.00;99654.38;5070998;28;20028;-65
2021/05/10 02:44:56;;;;;;;36.30;5.65;;;;;;;11.50;100.00;99661.22;5070993;28;20048;-65
2021/05/10 02:47:23;;;;;;;30.30;5.93;;;;;;;11.49;100.00;99654.13;5070779;28;20044;-65
2021/05/10 02:49:48;;;;;;;41.83;6.63;;;;;;;11.47;100.00;99648.94;5070947;28;20043;-67
2021/05/10 02:52:14;;;;;;;32.63;4.72;;;;;;;11.50;100.00;99650.28;5070890;28;20514;-65
2021/05/10 02:54:40;;;;;;;29.75;4.45;;;;;;;11.48;100.00;99657.97;5070560;28;20037;-65
2021/05/10 02:57:05;;;;;;;39.50;5.70;;;;;;;11.46;100.00;99660.16;5070347;28;20052;-66
2021/05/10 02:59:31;;;;;;;30.50;5.40;;;;;;;11.45;100.00;99655.75;5070685;28;20032;-64
2021/05/10 03:01:57;;;;;;;48.15;7.10;;;;;;;11.44;100.00;99659.59;5070615;28;20046;-65
2021/05/10 03:04:25;;;;;;;46.22;7.13;;;;;;;11.44;100.00;99659.59;5070533;28;20494;-67
2021/05/10 03:06:50;;;;;;;57.03;6.78;;;;;;;11.44;100.00;99659.59;5070845;28;20074;-66
2021/05/10 03:09:16;;;;;;;40.60;4.68;;;;;;;11.44;100.00;99662.31;5069252;28;20498;-65
2021/05/10 03:11:42;;;;;;;44.53;5.53;;;;;;;11.44;100.00;99659.59;5070627;28;20040;-66
2021/05/10 03:14:08;;;;;;;43.63;6.25;;;;;;;11.45;100.00;99663.97;5070595;28;20545;-67
2021/05/10 03:16:34;;;;;;;61.30;8.50;;;;;;;11.47;100.00;99673.56;5068966;28;20041;-66
2021/05/10 03:19:02;;;;;;;55.30;5.45;;;;;;;11.40;100.00;99670.25;5070701;28;20040;-66
2021/05/10 03:21:28;;;;;;;45.13;5.85;;;;;;;11.32;100.00;99670.03;5070645;28;20491;-66
2021/05/10 03:23:54;;;;;;;26.63;2.95;;;;;;;11.24;100.00;99673.28;5070363;28;20040;-67
2021/05/10 03:26:20;;;;;;;31.45;4.70;;;;;;;11.14;100.00;99658.56;5070529;28;20375;-66
2021/05/10 03:28:45;;;;;;;24.45;3.60;;;;;;;11.08;100.00;99648.72;5070542;28;20042;-67
2021/05/10 03:31:11;;;;;;;23.38;3.15;;;;;;;11.05;100.00;99654.72;5070433;28;20040;-66
2021/05/10 03:33:37;;;;;;;21.08;2.10;;;;;;;11.00;100.00;99652.00;5070379;28;20051;-66
2021/05/10 03:36:03;;;;;;;28.00;3.42;;;;;;;10.96;100.00;99659.13;5070448;28;20048;-66
2021/05/10 03:38:29;;;;;;;14.23;2.45;;;;;;;10.92;100.00;99643.53;5070686;28;20059;-67
2021/05/10 03:40:54;;;;;;;27.92;2.35;;;;;;;10.91;100.00;99653.63;5070456;28;20052;-66
2021/05/10 03:43:20;;;;;;;16.73;3.85;;;;;;;10.90;100.00;99662.94;5070426;28;20394;-66
2021/05/10 03:45:46;;;;;;;28.60;2.88;;;;;;;10.90;100.00;99657.47;5070119;28;20063;-66
2021/05/10 03:48:12;;;;;;;18.75;2.70;;;;;;;10.91;100.00;99663.75;5070363;28;20115;-67
2021/05/10 03:50:37;;;;;;;26.42;2.20;;;;;;;10.91;100.00;99659.09;5070397;28;20398;-66
2021/05/10 03:53:03;;;;;;;25.98;3.38;;;;;;;10.95;100.00;99652.03;5068883;28;20040;-66
2021/05/10 03:55:28;;;;;;;25.40;3.25;;;;;;;10.96;100.00;99661.84;5070169;28;20045;-65
2021/05/10 03:57:56;;;;;;;23.35;2.75;;;;;;;10.98;100.00;99654.19;5070187;28;20056;-66
2021/05/10 04:00:21;;;;;;;19.73;3.58;;;;;;;11.00;100.00;99668.41;5070089;28;20060;-66
2021/05/10 04:02:47;;;;;;;25.15;3.47;;;;;;;11.04;100.00;99685.06;5070061;28;20075;-66
2021/05/10 04:05:53;;;;;;;29.52;4.60;;;;;;;11.06;100.00;99675.50;5070095;28;20118;-66
2021/05/10 04:15:54;;;;;;;34.17;4.05;;;;;;;11.15;100.00;99687.53;5073482;28;20048;-65
2021/05/10 04:18:21;;;;;;;54.70;6.07;;;;;;;11.16;100.00;99678.22;5073798;28;20037;-65
2021/05/10 04:20:49;;;;;;;36.03;4.70;;;;;;;11.19;100.00;99696.00;5074017;28;20074;-68
2021/05/10 04:23:16;;;;;;;27.40;4.13;;;;;;;11.21;100.00;99687.50;5073376;28;20051;-66
2021/05/10 04:25:48;;;;;;;37.50;5.50;;;;;;;11.25;100.00;99694.06;5073570;28;20028;-66
2021/05/10 04:28:15;;;;;;;33.88;5.30;;;;;;;11.28;100.00;99698.97;5073676;28;20039;-66
2021/05/10 04:30:42;;;;;;;49.00;5.43;;;;;;;11.28;100.00;99696.25;5073365;28;20107;-64
2021/05/10 04:33:08;;;;;;;35.42;5.22;;;;;;;11.28;100.00;99698.97;5073550;28;20029;-67
2021/05/10 04:35:34;;;;;;;32.10;4.43;;;;;;;11.27;100.00;99697.34;5073336;28;20071;-66
2021/05/10 04:38:09;;;;;;;44.75;5.25;;;;;;;11.26;100.00;99703.91;5073225;28;20116;-64
2021/05/10 04:40:36;;;;;;;38.65;4.65;;;;;;;11.28;100.00;99701.72;5073362;28;20044;-67
2021/05/10 04:43:02;;;;;;;39.13;4.53;;;;;;;11.26;100.00;99701.16;5073285;28;20135;-65
2021/05/10 04:45:28;;;;;;;36.90;4.85;;;;;;;11.25;100.00;99697.63;5073045;28;20060;-66
2021/05/10 04:47:53;;;;;;;38.03;5.38;;;;;;;11.26;100.00;99698.44;5073177;28;20051;-67
2021/05/10 04:50:19;;;;;;;37.45;6.25;;;;;;;11.27;100.00;99694.59;5073197;28;20044;-66
2021/05/10 04:52:44;;;;;;;29.15;4.53;;;;;;;11.28;100.00;99702.56;5072944;28;20028;-65
2021/05/10 04:55:12;;;;;;;42.80;4.93;;;;;;;11.32;100.00;99702.81;5072962;28;20044;-66
2021/05/10 04:57:37;;;;;;;48.92;5.72;;;;;;;11.34;100.00;99703.38;5072817;28;20518;-65
2021/05/10 05:00:05;;;;;;;41.95;5.90;;;;;;;11.36;100.00;99712.09;5073169;28;20048;-66
2021/05/10 05:02:30;;;;;;;46.58;6.13;;;;;;;11.38;100.00;99715.38;5072983;28;20497;-66
2021/05/10 05:04:56;;;;;;;40.45;7.30;;;;;;;11.39;100.00;99711.56;5072735;28;20041;-66
2021/05/10 05:07:22;;;;;;;46.25;5.28;;;;;;;11.40;100.00;99721.38;5072731;28;20076;-67
2021/05/10 05:09:47;;;;;;;45.17;6.28;;;;;;;11.39;100.00;99725.22;5072980;28;20040;-66
2021/05/10 05:12:13;;;;;;;37.58;6.20;;;;;;;11.40;100.00;99726.84;5072771;28;20044;-67
2021/05/10 05:14:39;;;;;;;32.30;4.30;;;;;;;11.32;100.00;99736.44;5072386;28;20055;-65
2021/05/10 05:17:04;;;;;;;36.85;5.20;;;;;;;11.29;100.00;99727.97;5072634;28;20075;-68
2021/05/10 05:19:31;;;;;;;39.38;4.32;;;;;;;11.26;100.00;99725.75;5072710;28;20037;-66
2021/05/10 05:21:57;;;;;;;30.75;4.13;;;;;;;11.21;100.00;99725.78;5071740;28;20055;-65
2021/05/10 05:24:23;;;;;;;37.95;5.97;;;;;;;11.18;100.00;99738.91;5072425;28;20036;-66
2021/05/10 05:26:48;;;;;;;39.17;5.35;;;;;;;11.17;100.00;99737.25;5072607;28;20041;-66
2021/05/10 05:29:17;;;;;;;43.00;7.00;;;;;;;11.17;100.00;99734.53;5072369;28;20040;-66
2021/05/10 05:31:43;;;;;;;40.88;5.05;;;;;;;11.22;100.00;99741.06;5072418;28;20063;-66
2021/05/10 05:34:08;;;;;;;42.95;5.90;;;;;;;11.24;100.00;99749.81;5072209;28;20040;-67
2021/05/10 05:36:34;;;;;;;43.30;4.80;;;;;;;11.29;100.00;99747.13;5072501;28;20122;-66
2021/05/10 05:38:59;;;;;;;37.10;5.07;;;;;;;11.34;100.00;99750.66;5072593;28;20044;-68
2021/05/10 05:41:25;;;;;;;45.33;5.97;;;;;;;11.39;100.00;99749.81;5072247;28;20047;-67
2021/05/10 05:43:51;;;;;;;48.05;6.10;;;;;;;11.43;100.00;99761.84;5072086;28;20039;-67
2021/05/10 05:46:25;;;;;;;37.97;4.43;;;;;;;11.46;100.00;99753.13;5072105;28;20028;-66
2021/05/10 05:48:51;;;;;;;49.63;6.45;;;;;;;11.57;100.00;99759.38;5072076;28;20078;-65
2021/05/10 05:51:17;;;;;;;44.25;5.13;;;;;;;11.57;100.00;99765.66;5071890;28;20094;-65
2021/05/10 05:53:43;;;;;;;49.90;6.45;;;;;;;11.61;100.00;99764.00;5072033;28;20032;-65
2021/05/10 05:56:09;;;;;;;42.03;5.22;;;;;;;11.52;100.00;99757.47;5071877;28;20111;-66
2021/05/10 05:58:35;;;;;;;51.05;5.78;;;;;;;11.48;100.00;99761.88;5071548;28;20056;-65
2021/05/10 06:01:00;;;;;;;45.88;6.05;;;;;;;11.48;100.00;99765.41;5071753;28;20035;-67
2021/05/10 06:03:26;;;;;;;44.70;5.05;;;;;;;11.50;100.00;99765.13;5071737;28;20158;-65
2021/05/10 06:05:52;;;;;;;31.60;5.32;;;;;;;11.43;100.00;99770.03;5071472;28;20032;-66
2021/05/10 06:08:17;;;;;;;42.30;5.82;;;;;;;11.39;100.00;99766.22;5071728;28;20059;-66
2021/05/10 06:10:44;;;;;;;36.78;5.78;;;;;;;11.36;100.00;99774.97;5071871;28;20028;-65
2021/05/10 06:13:10;;;;;;;40.22;4.40;;;;;;;11.35;100.00;99784.28;5071494;28;20072;-67
2021/05/10 06:15:36;;;;;;;37.65;5.05;;;;;;;11.37;100.00;99779.34;5071264;28;20075;-66
2021/05/10 06:18:01;;;;;;;43.15;6.57;;;;;;;11.45;100.00;99781.53;5070059;28;20047;-65
2021/05/10 06:20:27;;;;;;;38.65;5.18;;;;;;;11.44;100.00;99782.63;5071336;28;20048;-66
2021/05/10 06:22:53;;;;;;;40.45;5.30;;;;;;;11.45;100.00;99792.47;5070045;28;20040;-66
2021/05/10 06:25:19;;;;;;;37.10;4.72;;;;;;;11.49;100.00;99785.38;5071242;28;20024;-66
2021/05/10 06:27:45;;;;;;;34.97;5.15;;;;;;;11.58;100.00;99789.19;5071364;28;20093;-66
2021/05/10 06:30:13;;;;;;;43.67;5.85;;;;;;;11.66;100.00;99791.38;5071147;28;20089;-66
2021/05/10 06:32:40;;;;;;;40.67;5.45;;;;;;;11.73;100.00;99802.84;5102833;28;20187;-65
2021/05/10 06:35:07;;;;;;;46.20;5.35;;;;;;;11.72;100.00;99794.91;5070999;28;20036;-68
2021/05/10 06:37:34;;;;;;;37.97;5.30;;;;;;;11.77;100.00;99795.72;5071355;28;20082;-66
2021/05/10 06:40:00;;;;;;;43.40;6.53;;;;;;;11.81;100.00;99789.75;5071124;28;20506;-67
2021/05/10 06:42:26;;;;;;;38.20;5.05;;;;;;;11.82;100.00;99810.53;5070979;28;20036;-65
2021/05/10 06:44:53;;;;;;;38.33;5.45;;;;;;;11.74;100.00;99799.00;5070832;28;20123;-65
2021/05/10 06:47:19;;;;;;;31.05;4.47;;;;;;;11.79;100.00;99795.47;5069700;28;20443;-66
2021/05/10 06:49:47;;;;;;;38.33;4.60;;;;;;;11.75;100.00;99808.84;5070991;28;20040;-67
2021/05/10 06:52:12;;;;;;;36.78;4.90;;;;;;;11.77;100.00;99803.94;5070725;28;20394;-65
2021/05/10 06:54:38;;;;;;;36.65;4.60;;;;;;;11.81;100.00;99811.66;5070791;28;20052;-68
2021/05/10 06:57:03;;;;;;;37.00;4.88;;;;;;;11.87;100.00;99803.13;5070707;28;20049;-67
2021/05/10 06:59:29;;;;;;;38.58;5.20;;;;;;;11.90;100.00;99815.44;5070699;28;20067;-67
2021/05/10 07:01:55;;;;;;;35.05;4.78;;;;;;;11.89;100.00;99805.59;5070738;28;20064;-65
2021/05/10 07:04:21;;;;;;;37.63;5.50;;;;;;;11.86;100.00;99817.09;5070857;28;20090;-65
2021/05/10 07:06:46;;;;;;;25.60;4.07;;;;;;;11.84;100.00;99822.03;5070595;28;20059;-67
2021/05/10 07:09:12;;;;;;;36.08;5.95;;;;;;;11.84;100.00;99813.81;5070776;28;20037;-66
2021/05/10 07:11:38;;;;;;;38.90;5.28;;;;;;;11.88;100.00;99817.63;5070655;28;20044;-67
2021/05/10 07:14:04;;;;;;;34.70;4.78;;;;;;;11.94;100.00;99822.00;5070680;28;20044;-65
2021/05/10 07:16:30;;;;;;;35.55;4.38;;;;;;;12.05;100.00;99809.94;5070452;28;20507;-67
2021/05/10 07:18:56;;;;;;;32.38;4.43;;;;;;;12.07;100.00;99818.69;5070688;28;20127;-66
2021/05/10 07:21:23;;;;;;;37.20;5.65;;;;;;;12.19;100.00;99821.97;5070863;28;20040;-66
2021/05/10 07:23:49;;;;;;;35.80;5.45;;;;;;;12.26;100.00;99833.44;5070919;28;20059;-67
2021/05/10 07:26:16;;;;;;;31.67;4.25;;;;;;;12.22;100.00;99826.88;5070572;28;20083;-66
2021/05/10 07:28:42;;;;;;;27.13;4.78;;;;;;;12.20;100.00;99834.56;5070485;28;20036;-66
2021/05/10 07:31:08;;;;;;;25.15;4.13;;;;;;;12.18;100.00;99814.84;5069343;28;20063;-66
2021/05/10 07:33:33;;;;;;;36.90;5.05;;;;;;;12.15;100.00;99831.84;5070491;28;20120;-65
2021/05/10 07:35:59;;;;;;;29.13;5.03;;;;;;;12.14;100.00;99838.38;5070117;28;20032;-66
2021/05/10 07:38:24;;;;;;;24.23;4.95;;;;;;;12.11;100.00;99833.47;5067839;28;20044;-66
2021/05/10 07:40:50;;;;;;;27.02;3.75;;;;;;;12.07;100.00;99840.59;5068448;28;20040;-69
2021/05/10 07:43:16;;;;;;;36.72;4.97;;;;;;;12.13;100.00;99838.66;5050735;28;20128;-69
2021/05/10 07:45:42;;;;;;;30.90;4.40;;;;;;;12.15;100.00;99845.53;5054405;28;20487;-64
2021/05/10 07:48:07;;;;;;;30.48;5.32;;;;;;;12.13;100.00;99844.94;5055741;28;20098;-66
2021/05/10 07:50:33;;;;;;;30.98;4.30;;;;;;;12.18;100.00;99844.97;5054154;28;20040;-66
2021/05/10 07:52:59;;;;;;;39.00;4.43;;;;;;;12.19;100.00;99857.53;5069066;28;20076;-66
2021/05/10 07:55:25;;;;;;;26.10;4.38;;;;;;;12.30;100.00;99839.97;5074488;28;20037;-68
2021/05/10 07:57:53;;;;;;;27.02;3.22;;;;;;;12.35;100.00;99853.69;5074216;28;20059;-68
2021/05/10 08:00:31;;;;;;;32.22;4.13;;;;;;;12.40;100.00;99854.75;5074110;28;20047;-67
2021/05/10 08:03:05;;;;;;;22.77;3.63;;;;;;;12.44;100.00;99851.16;5068522;28;20483;-64
2021/05/10 08:05:31;;;;;;;24.33;3.45;;;;;;;12.47;100.00;99860.75;5055517;28;20036;-66
2021/05/10 08:07:57;;;;;;;24.35;3.38;;;;;;;12.50;100.00;99854.72;5057270;28;20422;-66
2021/05/10 08:10:22;;;;;;;28.63;4.68;;;;;;;12.47;100.00;99855.28;5074065;28;20037;-70
2021/05/10 08:12:49;;;;;;;22.73;3.70;;;;;;;12.53;100.00;99870.59;5059652;28;20063;-67
2021/05/10 08:15:14;;;;;;;30.50;3.90;;;;;;;12.50;100.00;99865.69;5066196;28;20041;-67
2021/05/10 08:17:40;;;;;;;21.00;3.58;;;;;;;12.44;100.00;99866.78;5072987;28;20490;-67
2021/05/10 08:20:07;;;;;;;29.65;3.83;;;;;;;12.54;100.00;99861.28;5072768;28;20132;-67
2021/05/10 08:22:33;;;;;;;29.08;3.95;;;;;;;12.56;100.00;99876.34;5060288;28;20032;-64
2021/05/10 08:24:59;;;;;;;28.70;3.60;;;;;;;12.63;100.00;99876.03;5071333;28;20024;-66
2021/05/10 08:27:25;;;;;;;20.20;3.67;;;;;;;12.68;100.00;99889.72;5072526;28;20107;-63
2021/05/10 08:29:51;;;;;;;22.80;3.40;;;;;;;12.72;100.00;99887.25;5067715;28;20476;-65
2021/05/10 08:32:16;;;;;;;26.20;3.83;;;;;;;12.77;100.00;99874.34;5070129;28;20078;-63
2021/05/10 08:34:42;;;;;;;23.98;3.53;;;;;;;12.82;100.00;99885.28;5052951;28;20090;-64
2021/05/10 08:37:08;;;;;;;26.67;3.28;;;;;;;12.93;100.00;99886.88;5053251;28;20041;-62
2021/05/10 08:39:34;;;;;;;29.38;3.60;;;;;;;12.99;100.00;99891.22;5060998;28;20510;-64
2021/05/10 08:41:59;;;;;;;28.35;4.20;;;;;;;12.99;100.00;99891.22;5064402;28;20375;-63
2021/05/10 08:44:25;;;;;;;31.60;4.57;;;;;;;12.99;100.00;99896.69;5053506;28;20051;-65
2021/05/10 08:46:52;;;;;;;31.92;5.18;;;;;;;12.97;100.00;99904.38;5053723;28;20094;-65
2021/05/10 08:49:20;;;;;;;36.50;4.20;;;;;;;12.82;100.00;99901.72;5069662;28;20451;-65
2021/05/10 08:51:48;;;;;;;30.80;4.43;;;;;;;12.91;100.00;99916.50;5059171;28;20074;-66
2021/05/10 08:54:21;;;;;;;31.17;4.93;;;;;;;12.84;100.00;99913.25;5072316;28;20036;-63
2021/05/10 08:56:47;;;;;;;30.10;4.72;;;;;;;12.79;100.00;99913.25;5068759;28;20044;-65
2021/05/10 08:59:13;;;;;;;32.28;4.60;;;;;;;12.70;100.00;99914.94;5062898;28;20041;-62
2021/05/10 09:01:47;;;;;;;14.02;2.42;;;;;;;12.56;100.00;99919.34;5065637;28;20040;-67
2021/05/10 09:04:15;;;;;;;33.05;4.65;;;;;;;12.38;100.00;99918.84;5072168;28;20040;-65
2021/05/10 09:06:41;;;;;;;23.17;4.15;;;;;;;12.33;100.00;99935.28;5066053;28;20040;-65
2021/05/10 09:09:08;;;;;;;33.60;3.60;;;;;;;12.36;100.00;99936.66;5064403;28;20036;-65
2021/05/10 09:11:35;;;;;;;30.70;4.18;;;;;;;12.54;100.00;99943.47;5072024;28;20091;-63
2021/05/10 09:14:01;;;;;;;28.52;4.20;;;;;;;12.61;100.00;99943.97;5071246;28;20024;-65
2021/05/10 09:16:27;;;;;;;33.20;4.40;;;;;;;12.64;100.00;99932.47;5060266;28;20033;-64
2021/05/10 09:18:58;;;;;;;23.38;3.53;;;;;;;12.68;100.00;99939.03;5059532;28;20036;-65
2021/05/10 09:21:29;;;;;;;30.30;5.18;;;;;;;12.76;100.00;99935.72;5068978;28;20494;-66
2021/05/10 09:23:56;;;;;;;28.63;4.30;;;;;;;12.86;100.00;99946.66;5072553;28;20113;-65
2021/05/10 09:26:35;;;;;;;31.40;5.13;;;;;;;12.97;100.00;99953.72;5071763;28;20032;-66
2021/05/10 09:29:02;;;;;;;30.52;4.35;;;;;;;13.00;100.00;99952.34;5068079;28;20383;-63
2021/05/10 09:31:29;;;;;;;28.80;4.47;;;;;;;13.04;100.00;99952.63;5053090;28;20122;-65
2021/05/10 09:33:55;;;;;;;25.27;3.50;;;;;;;13.10;100.00;99949.56;5053049;28;20044;-67
2021/05/10 09:36:30;;;;;;;35.58;4.65;;;;;;;13.10;100.00;99967.94;5052114;28;20072;-64
2021/05/10 09:38:56;;;;;;;34.33;4.95;;;;;;;13.20;100.00;99965.22;5052003;28;20033;-62
2021/05/10 09:41:22;;;;;;;31.15;4.53;;;;;;;13.26;100.00;99964.06;5051506;28;20391;-65
2021/05/10 09:43:57;;;;;;;22.75;3.88;;;;;;;13.26;100.00;99973.13;5051890;28;20048;-65
2021/05/10 09:46:43;;;;;;;29.50;5.78;;;;;;;13.31;100.00;99974.19;5051880;28;20029;-63
2021/05/10 09:49:10;;;;;;;38.58;6.82;;;;;;;13.41;100.00;99991.44;5051509;28;20495;-64
2021/05/10 09:51:39;;;;;;;33.22;5.00;;;;;;;13.40;100.00;99984.31;5051959;28;20037;-63
2021/05/10 09:54:13;;;;;;;36.47;5.47;;;;;;;13.46;100.00;99988.66;5051661;28;20091;-64
2021/05/10 09:56:41;;;;;;;31.77;5.15;;;;;;;13.37;100.00;99989.53;5051755;28;20091;-62
2021/05/10 09:59:12;;;;;;;32.92;4.80;;;;;;;13.46;100.00;99974.94;5051827;28;20037;-63
2021/05/10 10:01:41;;;;;;;33.72;5.00;;;;;;;13.49;100.00;100001.81;5051825;28;20040;-64
2021/05/10 10:04:06;;;;;;;28.70;5.10;;;;;;;13.54;100.00;99996.31;5051401;28;20475;-63
2021/05/10 10:06:32;;;;;;;23.63;4.22;;;;;;;13.56;100.00;99985.88;5051437;28;20089;-64
2021/05/10 10:08:58;;;;;;;36.85;4.85;;;;;;;13.61;100.00;100003.41;5051675;28;20060;-65
2021/05/10 10:11:26;;;;;;;31.20;5.47;;;;;;;13.69;100.00;100030.22;5051344;28;20518;-63
2021/05/10 10:13:53;;;;;;;27.98;4.68;;;;;;;13.62;100.00;100013.28;5051372;28;20143;-62
2021/05/10 10:16:20;;;;;;;36.78;5.03;;;;;;;13.67;100.00;100005.00;5051477;28;20380;-63
2021/05/10 10:18:47;;;;;;;39.25;5.72;;;;;;;13.70;100.00;100020.91;5051422;28;20563;-62
2021/05/10 10:21:15;;;;;;;32.72;5.18;;;;;;;13.64;100.00;100022.03;5051164;28;20119;-62
2021/05/10 10:23:43;;;;;;;36.03;4.70;;;;;;;13.55;100.00;100032.78;5051346;28;20037;-64
2021/05/10 10:26:11;;;;;;;26.48;4.88;;;;;;;13.60;100.00;100024.53;5051033;28;20032;-63
2021/05/10 10:28:38;;;;;;;37.63;5.40;;;;;;;13.65;100.00;100051.94;5051226;28;20055;-64
2021/05/10 10:31:17;;;;;;;40.42;5.88;;;;;;;13.66;100.00;100025.31;5051359;28;20369;-64
2021/05/10 10:34:20;;;;;;;32.10;4.75;;;;;;;13.70;100.00;100029.13;5068297;28;20379;-65
2021/05/10 10:36:49;;;;;;;40.47;5.43;;;;;;;13.73;100.00;100047.78;5066611;28;20482;-64
2021/05/10 10:39:22;;;;;;;31.70;5.10;;;;;;;13.77;100.00;100048.88;5052915;28;20037;-65
2021/05/10 10:41:50;;;;;;;34.85;4.55;;;;;;;13.87;100.00;100054.28;5058017;28;20070;-66
2021/05/10 10:44:41;;;;;;;30.42;6.20;;;;;;;13.98;100.00;100060.53;5065296;28;20123;-66
2021/05/10 10:47:11;;;;;;;30.33;5.85;;;;;;;13.88;100.00;100072.38;5065684;28;20450;-63
2021/05/10 10:49:46;;;;;;;39.78;5.95;;;;;;;13.91;100.00;100060.88;5064947;28;20563;-65
2021/05/10 10:52:17;;;;;;;35.35;5.28;;;;;;;13.88;100.00;100066.91;5062638;28;20050;-65
2021/05/10 10:54:42;;;;;;;30.10;5.28;;;;;;;13.94;100.00;100082.25;5063549;28;20064;-64
2021/05/10 10:57:08;;;;;;;36.10;6.07;;;;;;;13.79;100.00;100096.06;5068756;28;20091;-63
2021/05/10 10:59:38;;;;;;;37.63;5.97;;;;;;;13.84;100.00;100090.53;5068868;28;20542;-64
2021/05/10 11:02:18;;;;;;;33.40;6.20;;;;;;;13.87;100.00;100092.72;5069191;28;20036;-62
2021/05/10 11:04:47;;;;;;;38.60;5.25;;;;;;;14.09;100.00;100095.91;5063087;28;20032;-67
2021/05/10 11:07:13;;;;;;;38.05;5.15;;;;;;;14.22;100.00;100099.09;5052058;28;20090;-65
2021/05/10 11:09:52;;;;;;;37.10;6.05;;;;;;;14.13;100.00;100091.47;5070227;28;20071;-65
2021/05/10 11:12:49;;;;;;;37.13;7.03;;;;;;;14.17;100.00;100106.28;5068003;28;20024;-62
2021/05/10 11:15:34;;;;;;;33.47;5.82;;;;;;;14.15;100.00;100102.19;5066535;28;20032;-63
2021/05/10 11:18:04;;;;;;;30.42;5.82;;;;;;;14.16;100.00;100101.88;5070018;28;20034;-62
2021/05/10 11:20:43;;;;;;;37.00;5.78;;;;;;;14.21;100.00;100123.00;5068836;28;20036;-64
2021/05/10 11:23:24;;;;;;;39.10;6.38;;;;;;;14.38;100.00;100119.88;5058510;28;20033;-62
2021/05/10 11:25:50;;;;;;;35.13;6.00;;;;;;;14.48;100.00;100128.91;5068537;28;20063;-64